Latest Weather Observations for Redcliffe

IDQ60801

Issued at 11:32 pm EST Tuesday 27 September 2016 (issued every 30 minutes, with the page automatically refreshed every 10 minutes)

About weather observations | Map of weather stations | Latest weather observations for QLD | Other Formats
Station Details ID: 040958 Name: REDCLIFFE Lat: -27.22 Lon: 153.09 Height: 12.6 m
Data from the previous 72 hours. | See also: Recent months at Redcliffe
Date/Time
EST
Temp
°C
App
Temp
°C
Dew
Point
°C
Rel
Hum
%
Delta-T
°C
Wind Press
QNH
hPa
Press
MSL
hPa
Rain since
9am
mm
Dir  Spd
km/h
Gust
km/h
Spd
kts
Gust
kts
27/11:30pm 18.0 15.2 5.2 43 6.2 WNW 9 11 5 6 1012.4 1012.3 0.0
27/11:00pm 18.5 16.0 4.7 40 6.6 W 7 9 4 5 1012.6 1012.5 0.0
27/10:30pm 17.3 15.6 8.4 56 4.6 W 7 9 4 5 1012.6 1012.5 0.0
27/10:00pm 17.3 16.3 8.7 57 4.4 WNW 4 7 2 4 1012.8 1012.7 0.0
27/09:30pm 17.7 16.0 8.3 54 4.8 WNW 7 9 4 5 1012.8 1012.7 0.0
27/09:00pm 18.6 17.9 7.1 47 5.8 CALM 0 0 0 0 1013.0 1012.9 0.0
27/08:30pm 18.9 17.7 9.7 55 4.9 WNW 6 9 3 5 1012.9 1012.8 0.0
27/08:00pm 19.0 16.9 11.1 60 4.3 NNW 13 17 7 9 1012.7 1012.6 0.0
27/07:30pm 19.6 17.6 10.0 54 5.1 NNW 11 17 6 9 1012.5 1012.4 0.0
27/07:00pm 19.5 17.6 10.5 56 4.9 NNW 11 15 6 8 1012.2 1012.1 0.0
27/06:30pm 20.2 16.6 8.2 46 6.2 N 17 24 9 13 1011.8 1011.7 0.0
27/06:00pm 20.4 15.6 9.0 48 6.0 N 24 35 13 19 1011.5 1011.4 0.0
27/05:30pm 22.2 15.4 6.8 37 7.9 NNE 32 39 17 21 1011.1 1011.0 0.0
27/05:00pm 21.1 14.9 8.0 43 6.8 NNE 30 35 16 19 1010.7 1010.6 0.0
27/04:30pm 21.9 15.0 7.3 39 7.5 NNE 33 35 18 19 1010.6 1010.5 0.0
27/04:00pm 23.0 17.0 7.1 36 8.2 NE 28 32 15 17 1010.4 1010.3 0.0
27/03:30pm 24.7 19.0 2.8 24 10.6 NE 22 28 12 15 1010.6 1010.5 0.0
27/03:00pm 25.0 19.8 5.7 29 9.9 NE 22 28 12 15 1011.0 1010.9 0.0
27/02:30pm 24.1 18.0 2.9 25 10.2 NE 24 30 13 16 1010.8 1010.7 0.0
27/02:00pm 24.5 19.0 2.0 23 10.7 NE 20 28 11 15 1011.5 1011.4 0.0
27/01:30pm 23.9 20.4 1.5 23 10.5 ENE 9 15 5 8 1012.0 1011.9 0.0
27/01:00pm 23.8 20.0 2.0 24 10.3 NE 11 17 6 9 1012.7 1012.6 0.0
27/12:30pm 23.2 19.7 1.5 24 10.1 SSE 9 17 5 9 1013.0 1012.9 0.0
27/12:00pm 23.0 18.8 4.0 29 9.3 SW 15 20 8 11 1013.3 1013.2 0.0
27/11:30am 21.9 18.3 3.1 29 9.0 SW 11 19 6 10 1013.8 1013.7 0.0
27/11:00am 22.0 18.1 3.6 30 8.9 SW 13 20 7 11 1014.2 1014.1 0.0
27/10:30am 21.1 16.4 2.9 30 8.6 SW 17 26 9 14 1014.5 1014.4 0.0
27/10:00am 20.0 15.2 2.8 32 8.0 WSW 17 24 9 13 1014.7 1014.6 0.0
27/09:30am 19.3 14.6 3.1 34 7.6 WSW 17 30 9 16 1014.8 1014.7 0.0
27/09:00am 19.1 13.8 2.9 34 7.5 SW 20 28 11 15 1015.3 1015.2 0.0
27/08:30am 19.5 15.5 2.8 33 7.8 SW 13 24 7 13 1015.3 1015.2 0.0
27/08:00am 19.5 15.4 4.4 37 7.2 SW 15 24 8 13 1014.8 1014.7 0.0
27/07:30am 18.5 14.0 4.3 39 6.8 SW 17 24 9 13 1014.5 1014.4 0.0
27/07:00am 17.3 13.2 4.6 43 6.0 SW 15 22 8 12 1013.9 1013.8 0.0
27/06:30am 17.0 13.4 5.0 45 5.7 SW 13 19 7 10 1013.7 1013.6 0.0
27/06:00am 16.2 13.3 4.6 46 5.5 W 9 15 5 8 1013.0 1012.9 0.0
27/05:30am 16.8 14.2 4.2 43 5.9 W 7 11 4 6 1012.4 1012.3 0.0
27/05:00am 17.0 13.3 4.3 43 6.0 WSW 13 19 7 10 1012.1 1012.0 0.0
27/04:30am 17.6 12.8 4.9 43 6.1 WSW 19 30 10 16 1011.9 1011.8 0.0
27/04:00am 17.7 12.1 5.3 44 6.0 SW 24 35 13 19 1011.5 1011.4 0.0
27/03:30am 18.1 12.4 5.0 42 6.3 WSW 24 39 13 21 1011.6 1011.5 0.0
27/03:00am 17.8 14.9 6.3 47 5.7 W 11 19 6 10 1011.3 1011.2 0.0
27/02:30am 17.8 14.6 7.0 49 5.4 W 13 20 7 11 1011.6 1011.5 0.0
27/02:00am 17.7 14.6 7.2 50 5.3 W 13 24 7 13 1012.0 1011.9 0.0
27/01:30am 18.2 14.7 7.0 48 5.6 W 15 22 8 12 1012.2 1012.1 0.0
27/01:00am 18.9 15.7 7.0 46 6.0 W 13 19 7 10 1012.4 1012.3 0.0
27/12:30am 18.8 15.7 7.3 47 5.8 WNW 13 19 7 10 1012.4 1012.3 0.0
27/12:00am 19.9 16.0 7.3 44 6.4 WSW 17 26 9 14 1012.7 1012.6 0.0
 
Date/Time
EST
Temp
°C
App
Temp
°C
Dew
Point
°C
Rel
Hum
%
Delta-T
°C
Wind Press
QNH
hPa
Press
MSL
hPa
Rain since
9am
mm
Dir  Spd
km/h
Gust
km/h
Spd
kts
Gust
kts
26/11:30pm 20.1 16.2 7.1 43 6.6 WSW 17 26 9 14 1012.5 1012.4 0.0
26/11:00pm 19.1 16.0 8.7 51 5.4 W 15 22 8 12 1012.7 1012.6 0.0
26/10:30pm 17.5 16.7 13.0 75 2.5 WNW 9 13 5 7 1012.7 1012.6 0.0
26/10:00pm 18.4 17.4 13.5 73 2.8 NW 11 15 6 8 1012.9 1012.8 0.0
26/09:30pm 18.8 17.8 13.4 71 3.1 NNW 11 15 6 8 1012.8 1012.7 0.0
26/09:00pm 19.3 16.3 13.7 70 3.2 N 22 28 12 15 1012.3 1012.2 0.0
26/08:30pm 19.5 18.2 13.7 69 3.3 NNW 13 19 7 10 1012.1 1012.0 0.0
26/08:00pm 20.0 18.4 13.9 68 3.5 N 15 20 8 11 1012.1 1012.0 0.0
26/07:30pm 20.1 18.8 13.8 67 3.6 N 13 19 7 10 1011.5 1011.4 0.0
26/07:00pm 20.3 18.9 13.5 65 3.9 N 13 19 7 10 1011.4 1011.3 0.0
26/06:30pm 20.5 18.0 13.5 64 4.0 N 19 24 10 13 1011.2 1011.1 0.0
26/06:00pm 20.7 17.4 12.9 61 4.4 N 22 26 12 14 1010.9 1010.8 0.0
26/05:30pm 21.0 16.9 12.7 59 4.7 NNE 26 28 14 15 1010.4 1010.3 0.0
26/05:00pm 21.6 17.0 12.2 55 5.3 NNE 28 30 15 16 1010.3 1010.2 0.0
26/04:30pm 22.0 17.2 11.7 52 5.8 NNE 28 30 15 16 1010.0 1009.9 0.0
26/04:00pm 23.0 18.0 11.1 47 6.6 NNE 28 32 15 17 1009.6 1009.5 0.0
26/03:30pm 23.3 18.6 9.3 41 7.6 NE 24 28 13 15 1009.6 1009.5 0.0
26/03:00pm 23.4 18.9 10.1 43 7.3 NE 24 30 13 16 1009.5 1009.4 0.0
26/02:30pm 24.1 19.7 6.4 32 9.1 NE 19 22 10 12 1009.6 1009.5 0.0
26/02:00pm 24.2 20.5 7.8 35 8.7 ENE 17 19 9 10 1009.8 1009.7 0.0
26/01:30pm 24.0 19.6 6.7 33 8.9 NE 19 20 10 11 1010.2 1010.1 0.0
26/01:00pm 23.7 19.5 7.3 35 8.6 ENE 19 22 10 12 1010.7 1010.6 0.0
26/12:30pm 23.8 19.7 7.8 36 8.4 NE 19 22 10 12 1011.3 1011.2 0.0
26/12:00pm 23.8 19.9 7.0 34 8.7 E 17 17 9 9 1011.8 1011.7 0.0
26/11:30am 24.2 21.1 7.4 34 8.8 ESE 13 13 7 7 1012.2 1012.1 0.0
26/11:00am 23.7 20.2 5.6 31 9.2 ESE 13 15 7 8 1012.6 1012.5 0.0
26/10:30am 24.1 21.3 6.8 33 9.0 SE 11 13 6 7 1013.0 1012.9 0.0
26/10:00am 24.0 20.2 7.6 35 8.6 SE 17 20 9 11 1013.3 1013.2 0.0
26/09:30am 23.4 20.3 7.1 35 8.5 S 13 19 7 10 1013.6 1013.5 0.0
26/09:00am 22.6 19.0 6.8 36 8.1 SSW 15 19 8 10 1013.6 1013.5 0.0
26/08:30am 21.5 17.8 8.1 42 7.0 SW 17 26 9 14 1013.6 1013.5 0.0
26/08:00am 20.7 17.2 8.7 46 6.3 SW 17 26 9 14 1013.3 1013.2 0.0
26/07:30am 19.7 17.1 9.3 51 5.5 SW 13 19 7 10 1013.3 1013.2 0.0
26/07:00am 18.5 16.0 8.2 51 5.3 SW 11 15 6 8 1013.0 1012.9 0.0
26/06:30am 17.5 15.1 8.6 56 4.6 WSW 11 15 6 8 1012.3 1012.2 0.0
26/06:00am 16.6 13.4 8.3 58 4.2 WSW 15 22 8 12 1011.7 1011.6 0.0
26/05:30am 16.3 13.4 8.0 58 4.2 WSW 13 19 7 10 1011.4 1011.3 0.0
26/05:00am 16.2 13.2 7.7 57 4.3 WSW 13 17 7 9 1011.2 1011.1 0.0
26/04:30am 16.7 13.4 7.9 56 4.4 W 15 17 8 9 1011.0 1010.9 0.0
26/04:00am 16.7 13.7 7.6 55 4.6 WSW 13 19 7 10 1010.8 1010.7 0.0
26/03:30am 17.1 13.8 8.0 55 4.6 WSW 15 22 8 12 1010.6 1010.5 0.0
26/03:00am 17.2 13.8 7.8 54 4.8 WSW 15 20 8 11 1010.4 1010.3 0.0
26/02:30am 17.6 14.3 8.2 54 4.8 WSW 15 22 8 12 1010.4 1010.3 0.0
26/02:00am 17.3 13.3 8.2 55 4.6 WSW 19 26 10 14 1010.4 1010.3 0.0
26/01:30am 17.4 14.2 8.3 55 4.7 WSW 15 19 8 10 1010.6 1010.5 0.0
26/01:00am 17.7 14.8 8.0 53 4.9 WSW 13 20 7 11 1010.8 1010.7 0.0
26/12:30am 18.0 14.7 8.0 52 5.1 WSW 15 22 8 12 1010.7 1010.6 0.0
26/12:00am 18.8 14.9 7.3 47 5.8 WSW 17 24 9 13 1011.0 1010.9 0.0
 
Date/Time
EST
Temp
°C
App
Temp
°C
Dew
Point
°C
Rel
Hum
%
Delta-T
°C
Wind Press
QNH
hPa
Press
MSL
hPa
Rain since
9am
mm
Dir  Spd
km/h
Gust
km/h
Spd
kts
Gust
kts
25/11:30pm 19.7 15.8 7.1 44 6.4 WSW 17 30 9 16 1010.9 1010.8 0.0
25/11:00pm 20.2 15.9 7.2 43 6.6 WSW 19 33 10 18 1010.8 1010.7 0.0
25/10:30pm 20.2 15.9 6.9 42 6.7 WSW 19 28 10 15 1010.8 1010.7 0.0
25/10:00pm 21.1 17.8 6.6 39 7.4 WSW 13 17 7 9 1010.8 1010.7 0.0
25/09:30pm 21.9 19.0 6.6 37 7.8 W 11 17 6 9 1010.8 1010.7 0.0
25/09:00pm 22.4 19.9 6.6 36 8.1 WSW 9 11 5 6 1010.6 1010.5 0.0
25/08:30pm 22.6 17.6 6.4 35 8.3 WSW 22 33 12 18 1010.1 1010.0 0.0
25/08:00pm 23.1 18.2 6.8 35 8.4 WSW 22 32 12 17 1009.4 1009.3 0.0
25/07:30pm 23.3 19.5 7.4 36 8.3 WSW 17 24 9 13 1009.4 1009.3 0.0
25/07:00pm 24.1 20.4 8.1 36 8.5 WSW 17 26 9 14 1008.7 1008.6 0.0
25/06:30pm 24.7 20.7 8.2 35 8.8 WSW 19 30 10 16 1008.1 1008.0 0.0
25/06:00pm 24.8 21.3 8.7 36 8.7 WSW 17 28 9 15 1007.5 1007.4 0.0
25/05:30pm 25.5 22.1 9.3 36 8.8 WSW 17 24 9 13 1006.8 1006.7 0.0
25/05:00pm 26.4 22.9 10.1 36 9.1 WSW 19 33 10 18 1006.1 1006.0 0.0
25/04:30pm 26.8 23.8 10.5 36 9.1 WSW 17 22 9 12 1005.7 1005.6 0.0
25/04:00pm 25.7 22.5 11.8 42 8.0 WSW 20 35 11 19 1005.5 1005.4 0.0
25/03:30pm 24.9 20.7 11.1 42 7.8 SW 24 33 13 18 1005.5 1005.4 0.0
25/03:23pm 25.2 20.3 11.4 42 7.8 SW 28 46 15 25 1005.6 1005.5 0.0
25/03:00pm 27.5 23.6 9.3 32 10.1 W 20 32 11 17 1005.2 1005.1 0.0
25/02:30pm 27.2 23.9 9.5 33 9.8 W 17 28 9 15 1005.2 1005.1 0.0
25/02:00pm 28.4 25.0 10.6 33 10.1 WSW 19 28 10 15 1005.3 1005.2 0.0
25/01:30pm 28.4 23.9 10.1 32 10.3 WNW 24 37 13 20 1005.4 1005.3 0.0
25/01:25pm 27.7 23.2 10.0 33 9.9 W 24 37 13 20 1005.6 1005.5 0.0
25/01:00pm 26.2 24.1 12.3 42 8.0 NE 15 19 8 10 1006.0 1005.9 0.0
25/12:30pm 27.4 24.5 13.0 41 8.4 NE 20 26 11 14 1006.1 1006.0 0.0
25/12:00pm 25.8 23.5 11.6 41 8.1 ENE 15 15 8 8 1006.6 1006.5 0.0
25/11:30am 24.4 22.7 13.6 51 6.3 NE 15 19 8 10 1007.2 1007.1 0.0
25/11:00am 22.4 20.6 13.2 56 5.3 NE 15 17 8 9 1008.0 1007.9 0.0
25/10:30am 21.8 20.5 13.7 60 4.7 NE 13 15 7 8 1008.4 1008.3 0.0
25/10:00am 20.6 19.6 13.3 63 4.2 NE 11 11 6 6 1009.0 1008.9 0.0
25/09:30am 19.8 20.2 15.4 76 2.6 NNW 7 11 4 6 1009.2 1009.1 0.0
25/09:00am 19.1 18.0 14.4 74 2.7 N 13 19 7 10 1009.6 1009.5 0.0
25/08:30am 18.5 18.8 14.6 78 2.3 WSW 6 9 3 5 1009.7 1009.6 0.0
25/08:00am 17.6 17.4 13.5 77 2.3 NNW 7 9 4 5 1009.8 1009.7 0.0
25/07:30am 17.4 16.5 12.5 73 2.7 WNW 9 11 5 6 1010.2 1010.1 0.0
25/07:00am 17.4 16.5 12.7 74 2.6 WNW 9 11 5 6 1010.2 1010.1 0.0
25/06:30am 15.5 14.0 11.9 79 2.0 WSW 11 13 6 7 1009.9 1009.8 0.0
25/06:00am 14.0 13.1 11.5 85 1.3 W 7 11 4 6 1009.6 1009.5 0.0
25/05:30am 13.5 13.1 11.0 85 1.3 W 4 7 2 4 1009.3 1009.2 0.0
25/05:00am 13.7 12.4 11.2 85 1.3 W 9 11 5 6 1009.1 1009.0 0.0
25/04:30am 14.2 13.0 11.5 84 1.4 WSW 9 13 5 7 1008.8 1008.7 0.0
25/04:00am 14.4 13.6 11.7 84 1.5 WSW 7 11 4 6 1008.6 1008.5 0.0
25/03:30am 14.4 13.8 11.7 84 1.4 SW 6 9 3 5 1008.5 1008.4 0.0
25/03:00am 14.6 13.8 11.7 83 1.6 SW 7 9 4 5 1008.4 1008.3 0.0
25/02:30am 14.8 14.1 11.9 83 1.6 WSW 7 13 4 7 1008.4 1008.3 0.0
25/02:00am 14.8 13.6 11.6 81 1.7 WSW 9 11 5 6 1008.7 1008.6 0.0
25/01:30am 15.0 13.5 11.8 81 1.7 WSW 11 15 6 8 1009.0 1008.9 0.0
25/01:00am 15.4 14.4 12.3 82 1.7 WSW 9 13 5 7 1009.0 1008.9 0.0
25/12:30am 15.8 14.3 11.8 77 2.2 W 11 11 6 6 1009.3 1009.2 0.0
25/12:00am 16.0 14.5 11.8 76 2.3 WNW 11 11 6 6 1009.5 1009.4 0.0

Other Formats:

Comma delimited format used in spreadsheet applications
http://www.bom.gov.au/fwo/IDQ60801/IDQ60801.95591.axf

JavaScript Object Notation format (JSON) in row-major order
http://www.bom.gov.au/fwo/IDQ60801/IDQ60801.95591.json